Chaplin, Canada
Current Conditions -  °F | °C
As of 5:01 AM on Sunday 23 Nov 2014 (Local Time) from CYYN Reporting Station
Light Snow Light Snow  
Wind Chill:   Ceiling: 1500
Heat Index: 19°   Visibility: 2mi
Dew Point: 18°   Wind: 26mph
Humidity: 93%   Direction: 320°NW
Pressure: 29.59"   Gusts: 35mph
Location:  50.47°N, 106.67°W
Report Text: CYYN 231101Z AUTO 32023G30KT 2SM -SN SCT011 BKN015 OVC021 M07/M08 A2959 RMK SLP053
Loading
Personal Weather Stations






























Interactive Weather Map New forecast layout! Learn more

10-Day Weather Forecast

Advertisements
Track Severe Weather on mobile